sensor_id;sensor_type;location;lat;lon;timestamp;pressure;altitude;pressure_sealevel;temperature;humidity
36600;BME280;35385;55.668;37.508;2023-03-01T00:00:18;98479.38;;;-4.45;100.00
36600;BME280;35385;55.668;37.508;2023-03-01T00:01:22;98470.69;;;-4.46;100.00
36600;BME280;35385;55.668;37.508;2023-03-01T00:02:22;98460.06;;;-4.62;100.00
36600;BME280;35385;55.668;37.508;2023-03-01T00:03:23;98467.41;;;-4.49;100.00
36600;BME280;35385;55.668;37.508;2023-03-01T00:04:24;98476.25;;;-4.53;100.00
36600;BME280;35385;55.668;37.508;2023-03-01T00:05:25;98471.94;;;-4.54;100.00
36600;BME280;35385;55.668;37.508;2023-03-01T00:06:26;98466.44;;;-4.69;100.00
36600;BME280;35385;55.668;37.508;2023-03-01T00:07:27;98469.72;;;-4.64;100.00
36600;BME280;35385;55.668;37.508;2023-03-01T00:08:28;98455.91;;;-4.66;100.00
36600;BME280;35385;55.668;37.508;2023-03-01T00:09:30;98470.47;;;-4.62;100.00
36600;BME280;35385;55.668;37.508;2023-03-01T00:10:30;98480.00;;;-4.60;100.00
36600;BME280;35385;55.668;37.508;2023-03-01T00:11:32;98469.44;;;-4.57;100.00
36600;BME280;35385;55.668;37.508;2023-03-01T00:12:33;98456.69;;;-4.64;100.00
36600;BME280;35385;55.668;37.508;2023-03-01T00:13:34;98465.94;;;-4.56;100.00
36600;BME280;35385;55.668;37.508;2023-03-01T00:14:35;98470.19;;;-4.54;100.00
36600;BME280;35385;55.668;37.508;2023-03-01T00:15:39;98410.13;;;-4.93;100.00
36600;BME280;35385;55.668;37.508;2023-03-01T00:16:42;98471.16;;;-4.56;100.00
36600;BME280;35385;55.668;37.508;2023-03-01T00:17:43;98476.47;;;-4.59;100.00
36600;BME280;35385;55.668;37.508;2023-03-01T00:18:44;98465.41;;;-4.65;100.00
36600;BME280;35385;55.668;37.508;2023-03-01T00:19:44;98476.84;;;-4.69;100.00
36600;BME280;35385;55.668;37.508;2023-03-01T00:20:55;98474.31;;;-4.70;100.00
36600;BME280;35385;55.668;37.508;2023-03-01T00:21:56;98467.53;;;-4.74;100.00
36600;BME280;35385;55.668;37.508;2023-03-01T00:22:56;98469.22;;;-4.73;100.00
36600;BME280;35385;55.668;37.508;2023-03-01T00:23:57;98464.75;;;-4.70;100.00
36600;BME280;35385;55.668;37.508;2023-03-01T00:24:58;98466.63;;;-4.73;100.00
36600;BME280;35385;55.668;37.508;2023-03-01T00:25:59;98451.66;;;-4.90;100.00
36600;BME280;35385;55.668;37.508;2023-03-01T00:26:59;98461.59;;;-4.78;100.00
36600;BME280;35385;55.668;37.508;2023-03-01T00:28:00;98463.16;;;-4.74;100.00
36600;BME280;35385;55.668;37.508;2023-03-01T00:29:00;98458.72;;;-4.72;100.00
36600;BME280;35385;55.668;37.508;2023-03-01T00:30:01;98406.72;;;-4.95;100.00
36600;BME280;35385;55.668;37.508;2023-03-01T00:31:11;98469.72;;;-4.64;100.00
36600;BME280;35385;55.668;37.508;2023-03-01T00:32:12;98467.88;;;-4.62;100.00
36600;BME280;35385;55.668;37.508;2023-03-01T00:33:13;98469.72;;;-4.64;100.00
36600;BME280;35385;55.668;37.508;2023-03-01T00:34:14;98415.56;;;-4.99;100.00
36600;BME280;35385;55.668;37.508;2023-03-01T00:35:14;98462.19;;;-4.71;100.00
36600;BME280;35385;55.668;37.508;2023-03-01T00:36:15;98304.88;;;-5.75;100.00
36600;BME280;35385;55.668;37.508;2023-03-01T00:37:16;98465.13;;;-4.79;100.00
36600;BME280;35385;55.668;37.508;2023-03-01T00:38:17;98412.41;;;-5.07;100.00
36600;BME280;35385;55.668;37.508;2023-03-01T00:39:17;98404.00;;;-5.14;100.00
36600;BME280;35385;55.668;37.508;2023-03-01T00:40:18;98464.22;;;-4.78;100.00
36600;BME280;35385;55.668;37.508;2023-03-01T00:41:19;98463.53;;;-4.83;100.00
36600;BME280;35385;55.668;37.508;2023-03-01T00:42:21;98410.53;;;-5.25;100.00
36600;BME280;35385;55.668;37.508;2023-03-01T00:43:22;98421.38;;;-5.14;100.00
36600;BME280;35385;55.668;37.508;2023-03-01T00:44:23;98454.06;;;-4.85;100.00
36600;BME280;35385;55.668;37.508;2023-03-01T00:45:24;98458.22;;;-4.80;100.00
36600;BME280;35385;55.668;37.508;2023-03-01T00:46:26;98459.75;;;-4.76;100.00
36600;BME280;35385;55.668;37.508;2023-03-01T00:47:29;98446.94;;;-4.80;100.00
36600;BME280;35385;55.668;37.508;2023-03-01T00:48:30;98469.41;;;-4.78;100.00
36600;BME280;35385;55.668;37.508;2023-03-01T00:49:31;98458.22;;;-4.80;100.00
36600;BME280;35385;55.668;37.508;2023-03-01T00:50:31;98455.59;;;-4.80;100.00
36600;BME280;35385;55.668;37.508;2023-03-01T00:51:33;98467.03;;;-4.84;100.00
36600;BME280;35385;55.668;37.508;2023-03-01T00:52:33;98464.38;;;-4.82;100.00
36600;BME280;35385;55.668;37.508;2023-03-01T00:53:35;98455.53;;;-5.00;100.00
36600;BME280;35385;55.668;37.508;2023-03-01T00:54:35;98456.84;;;-4.90;100.00
36600;BME280;35385;55.668;37.508;2023-03-01T00:55:36;98458.19;;;-5.02;100.00
36600;BME280;35385;55.668;37.508;2023-03-01T00:56:37;98435.97;;;-5.10;100.00
36600;BME280;35385;55.668;37.508;2023-03-01T00:57:38;98446.69;;;-4.96;100.00
36600;BME280;35385;55.668;37.508;2023-03-01T00:58:38;98384.91;;;-5.36;100.00
36600;BME280;35385;55.668;37.508;2023-03-01T00:59:39;98451.06;;;-4.96;100.00
36600;BME280;35385;55.668;37.508;2023-03-01T01:00:40;98457.13;;;-4.96;100.00
36600;BME280;35385;55.668;37.508;2023-03-01T01:01:40;98448.41;;;-4.95;100.00
36600;BME280;35385;55.668;37.508;2023-03-01T01:02:41;98436.28;;;-4.96;100.00
36600;BME280;35385;55.668;37.508;2023-03-01T01:03:43;98452.63;;;-4.92;100.00
36600;BME280;35385;55.668;37.508;2023-03-01T01:04:44;98441.97;;;-4.86;100.00
36600;BME280;35385;55.668;37.508;2023-03-01T01:05:45;98452.06;;;-5.01;100.00
36600;BME280;35385;55.668;37.508;2023-03-01T01:06:46;98453.03;;;-5.03;100.00
36600;BME280;35385;55.668;37.508;2023-03-01T01:07:47;98446.31;;;-5.09;100.00
36600;BME280;35385;55.668;37.508;2023-03-01T01:08:49;98448.81;;;-5.06;100.00
36600;BME280;35385;55.668;37.508;2023-03-01T01:09:50;98453.72;;;-4.98;100.00
36600;BME280;35385;55.668;37.508;2023-03-01T01:10:51;98440.00;;;-5.03;100.00
36600;BME280;35385;55.668;37.508;2023-03-01T01:11:51;98450.56;;;-5.06;100.00
36600;BME280;35385;55.668;37.508;2023-03-01T01:12:52;98449.53;;;-5.02;100.00
36600;BME280;35385;55.668;37.508;2023-03-01T01:13:53;98448.63;;;-5.01;100.00
36600;BME280;35385;55.668;37.508;2023-03-01T01:14:53;98277.81;;;-6.14;100.00
36600;BME280;35385;55.668;37.508;2023-03-01T01:15:54;98448.03;;;-5.08;100.00
36600;BME280;35385;55.668;37.508;2023-03-01T01:16:54;98348.81;;;-5.67;100.00
36600;BME280;35385;55.668;37.508;2023-03-01T01:17:55;98403.09;;;-5.35;100.00
36600;BME280;35385;55.668;37.508;2023-03-01T01:18:56;98431.88;;;-5.17;100.00
36600;BME280;35385;55.668;37.508;2023-03-01T01:19:57;98450.69;;;-5.09;100.00
36600;BME280;35385;55.668;37.508;2023-03-01T01:20:57;98433.47;;;-5.13;100.00
36600;BME280;35385;55.668;37.508;2023-03-01T01:22:03;98448.72;;;-5.04;100.00
36600;BME280;35385;55.668;37.508;2023-03-01T01:23:05;98455.09;;;-5.11;100.00
36600;BME280;35385;55.668;37.508;2023-03-01T01:24:06;98447.19;;;-5.08;100.00
36600;BME280;35385;55.668;37.508;2023-03-01T01:25:07;98453.41;;;-5.12;100.00
36600;BME280;35385;55.668;37.508;2023-03-01T01:26:21;98466.19;;;-5.06;100.00
36600;BME280;35385;55.668;37.508;2023-03-01T01:27:22;98449.84;;;-5.10;100.00
36600;BME280;35385;55.668;37.508;2023-03-01T01:28:23;98444.00;;;-5.16;100.00
36600;BME280;35385;55.668;37.508;2023-03-01T01:29:23;98439.75;;;-5.19;100.00
36600;BME280;35385;55.668;37.508;2023-03-01T01:30:24;98449.22;;;-5.16;100.00
36600;BME280;35385;55.668;37.508;2023-03-01T01:31:26;98455.78;;;-5.06;100.00
36600;BME280;35385;55.668;37.508;2023-03-01T01:32:28;98452.28;;;-5.05;100.00
36600;BME280;35385;55.668;37.508;2023-03-01T01:33:29;98455.91;;;-5.09;100.00
36600;BME280;35385;55.668;37.508;2023-03-01T01:34:29;98460.00;;;-5.04;100.00
36600;BME280;35385;55.668;37.508;2023-03-01T01:35:30;98452.59;;;-5.14;100.00
36600;BME280;35385;55.668;37.508;2023-03-01T01:36:31;98458.19;;;-5.23;100.00
36600;BME280;35385;55.668;37.508;2023-03-01T01:37:32;98457.06;;;-5.18;100.00
36600;BME280;35385;55.668;37.508;2023-03-01T01:38:34;98468.19;;;-5.13;100.00
36600;BME280;35385;55.668;37.508;2023-03-01T01:39:35;98463.28;;;-5.20;100.00
36600;BME280;35385;55.668;37.508;2023-03-01T01:40:43;98458.13;;;-5.22;100.00
36600;BME280;35385;55.668;37.508;2023-03-01T01:41:44;98458.97;;;-5.21;100.00
36600;BME280;35385;55.668;37.508;2023-03-01T01:42:44;98440.19;;;-5.29;100.00
36600;BME280;35385;55.668;37.508;2023-03-01T01:43:47;98462.22;;;-5.16;100.00
36600;BME280;35385;55.668;37.508;2023-03-01T01:46:31;98463.03;;;-5.14;100.00
36600;BME280;35385;55.668;37.508;2023-03-01T01:47:33;98412.25;;;-5.48;100.00
36600;BME280;35385;55.668;37.508;2023-03-01T01:48:43;98453.72;;;-5.20;100.00
36600;BME280;35385;55.668;37.508;2023-03-01T01:49:53;98467.69;;;-5.22;100.00
36600;BME280;35385;55.668;37.508;2023-03-01T01:50:59;98460.47;;;-5.38;100.00
36600;BME280;35385;55.668;37.508;2023-03-01T01:52:11;98460.34;;;-5.35;100.00
36600;BME280;35385;55.668;37.508;2023-03-01T01:53:16;98410.78;;;-5.55;100.00
36600;BME280;35385;55.668;37.508;2023-03-01T01:54:45;98449.53;;;-5.24;100.00
36600;BME280;35385;55.668;37.508;2023-03-01T01:55:54;98418.66;;;-5.56;100.00
36600;BME280;35385;55.668;37.508;2023-03-01T01:57:03;98466.22;;;-5.29;100.00
36600;BME280;35385;55.668;37.508;2023-03-01T01:58:09;98458.28;;;-5.26;100.00
36600;BME280;35385;55.668;37.508;2023-03-01T01:59:11;98434.31;;;-5.35;100.00
36600;BME280;35385;55.668;37.508;2023-03-01T02:00:16;98461.44;;;-5.18;100.00
36600;BME280;35385;55.668;37.508;2023-03-01T02:01:17;98388.63;;;-5.65;100.00
36600;BME280;35385;55.668;37.508;2023-03-01T02:02:19;98461.75;;;-5.26;100.00
36600;BME280;35385;55.668;37.508;2023-03-01T02:03:27;98451.59;;;-5.34;100.00
36600;BME280;35385;55.668;37.508;2023-03-01T02:04:37;98452.88;;;-5.44;100.00
36600;BME280;35385;55.668;37.508;2023-03-01T02:05:51;98457.91;;;-5.39;100.00
36600;BME280;35385;55.668;37.508;2023-03-01T02:07:00;98453.59;;;-5.40;100.00
36600;BME280;35385;55.668;37.508;2023-03-01T02:08:02;98438.59;;;-5.34;100.00
36600;BME280;35385;55.668;37.508;2023-03-01T02:09:13;98452.06;;;-5.22;100.00
36600;BME280;35385;55.668;37.508;2023-03-01T02:10:15;98456.66;;;-5.29;100.00
36600;BME280;35385;55.668;37.508;2023-03-01T02:11:15;98455.75;;;-5.28;100.00
36600;BME280;35385;55.668;37.508;2023-03-01T02:12:21;98453.06;;;-5.48;100.00
36600;BME280;35385;55.668;37.508;2023-03-01T02:13:23;98455.56;;;-5.47;100.00
36600;BME280;35385;55.668;37.508;2023-03-01T02:14:24;98387.50;;;-5.81;100.00
36600;BME280;35385;55.668;37.508;2023-03-01T02:15:24;98455.56;;;-5.47;100.00
36600;BME280;35385;55.668;37.508;2023-03-01T02:16:26;98448.44;;;-5.42;100.00
36600;BME280;35385;55.668;37.508;2023-03-01T02:17:27;98456.22;;;-5.40;100.00
36600;BME280;35385;55.668;37.508;2023-03-01T02:18:28;98450.38;;;-5.47;100.00
36600;BME280;35385;55.668;37.508;2023-03-01T02:19:38;98453.06;;;-5.48;100.00
36600;BME280;35385;55.668;37.508;2023-03-01T02:21:05;98381.34;;;-5.79;100.00
36600;BME280;35385;55.668;37.508;2023-03-01T02:22:20;98443.09;;;-5.37;100.00
36600;BME280;35385;55.668;37.508;2023-03-01T02:23:23;98418.81;;;-5.61;100.00
36600;BME280;35385;55.668;37.508;2023-03-01T02:24:27;98442.44;;;-5.44;100.00
36600;BME280;35385;55.668;37.508;2023-03-01T02:26:01;98441.91;;;-5.52;100.00
36600;BME280;35385;55.668;37.508;2023-03-01T02:27:07;98446.75;;;-5.43;100.00
36600;BME280;35385;55.668;37.508;2023-03-01T02:29:16;98438.03;;;-5.42;100.00
36600;BME280;35385;55.668;37.508;2023-03-01T02:30:18;98457.06;;;-5.40;100.00
36600;BME280;35385;55.668;37.508;2023-03-01T02:31:21;98456.31;;;-5.43;100.00
36600;BME280;35385;55.668;37.508;2023-03-01T02:32:41;98460.56;;;-5.41;100.00
36600;BME280;35385;55.668;37.508;2023-03-01T02:33:43;98450.03;;;-5.38;100.00
36600;BME280;35385;55.668;37.508;2023-03-01T02:34:44;98434.75;;;-5.47;100.00
36600;BME280;35385;55.668;37.508;2023-03-01T02:35:45;98466.41;;;-5.34;100.00
36600;BME280;35385;55.668;37.508;2023-03-01T02:36:48;98438.41;;;-5.51;100.00
36600;BME280;35385;55.668;37.508;2023-03-01T02:37:50;98463.38;;;-5.47;100.00
36600;BME280;35385;55.668;37.508;2023-03-01T02:38:53;98467.56;;;-5.43;100.00
36600;BME280;35385;55.668;37.508;2023-03-01T02:40:03;98463.22;;;-5.42;100.00
36600;BME280;35385;55.668;37.508;2023-03-01T02:41:07;98466.72;;;-5.43;100.00
36600;BME280;35385;55.668;37.508;2023-03-01T02:42:11;98463.97;;;-5.39;100.00
36600;BME280;35385;55.668;37.508;2023-03-01T02:43:14;98462.25;;;-5.40;100.00
36600;BME280;35385;55.668;37.508;2023-03-01T02:44:15;98470.97;;;-5.41;100.00
36600;BME280;35385;55.668;37.508;2023-03-01T02:45:16;98394.47;;;-5.82;100.00
36600;BME280;35385;55.668;37.508;2023-03-01T02:46:21;98465.66;;;-5.38;100.00
36600;BME280;35385;55.668;37.508;2023-03-01T02:47:22;98466.47;;;-5.36;100.00
36600;BME280;35385;55.668;37.508;2023-03-01T02:48:23;98482.97;;;-5.37;100.00
36600;BME280;35385;55.668;37.508;2023-03-01T02:49:32;98453.81;;;-5.46;100.00
36600;BME280;35385;55.668;37.508;2023-03-01T02:55:10;98464.41;;;-5.51;100.00
36600;BME280;35385;55.668;37.508;2023-03-01T02:55:52;98456.47;;;-5.48;100.00
36600;BME280;35385;55.668;37.508;2023-03-01T02:56:52;98452.31;;;-5.52;100.00
36600;BME280;35385;55.668;37.508;2023-03-01T02:57:53;98464.28;;;-5.48;100.00
36600;BME280;35385;55.668;37.508;2023-03-01T02:58:55;98444.72;;;-5.58;100.00
36600;BME280;35385;55.668;37.508;2023-03-01T03:00:08;98461.06;;;-5.54;100.00
36600;BME280;35385;55.668;37.508;2023-03-01T03:01:09;98479.19;;;-5.51;100.00
36600;BME280;35385;55.668;37.508;2023-03-01T03:02:25;98462.63;;;-5.49;100.00
36600;BME280;35385;55.668;37.508;2023-03-01T03:03:38;98466.34;;;-5.56;100.00
36600;BME280;35385;55.668;37.508;2023-03-01T03:04:38;98471.66;;;-5.59;100.00
36600;BME280;35385;55.668;37.508;2023-03-01T03:05:39;98456.13;;;-5.62;100.00
36600;BME280;35385;55.668;37.508;2023-03-01T03:06:39;98474.13;;;-5.56;100.00
36600;BME280;35385;55.668;37.508;2023-03-01T03:07:42;98473.34;;;-5.58;100.00
36600;BME280;35385;55.668;37.508;2023-03-01T03:08:43;98462.84;;;-5.55;100.00
36600;BME280;35385;55.668;37.508;2023-03-01T03:09:44;98478.44;;;-5.55;100.00
36600;BME280;35385;55.668;37.508;2023-03-01T03:10:45;98412.09;;;-5.90;100.00
36600;BME280;35385;55.668;37.508;2023-03-01T03:11:45;98471.59;;;-5.57;100.00
36600;BME280;35385;55.668;37.508;2023-03-01T03:12:50;98471.53;;;-5.56;100.00
36600;BME280;35385;55.668;37.508;2023-03-01T03:13:51;98472.00;;;-5.68;100.00
36600;BME280;35385;55.668;37.508;2023-03-01T03:14:52;98479.91;;;-5.71;100.00
36600;BME280;35385;55.668;37.508;2023-03-01T03:15:52;98482.28;;;-5.65;100.00
36600;BME280;35385;55.668;37.508;2023-03-01T03:16:53;98475.38;;;-5.66;100.00
36600;BME280;35385;55.668;37.508;2023-03-01T03:17:54;98463.38;;;-5.70;100.00
36600;BME280;35385;55.668;37.508;2023-03-01T03:18:55;98474.47;;;-5.65;100.00
36600;BME280;35385;55.668;37.508;2023-03-01T03:20:07;98480.13;;;-5.54;100.00
36600;BME280;35385;55.668;37.508;2023-03-01T03:21:12;98479.28;;;-5.54;100.00
36600;BME280;35385;55.668;37.508;2023-03-01T03:22:13;98482.91;;;-5.58;100.00
36600;BME280;35385;55.668;37.508;2023-03-01T03:23:14;98444.63;;;-5.78;100.00
36600;BME280;35385;55.668;37.508;2023-03-01T03:24:15;98473.59;;;-5.64;100.00
36600;BME280;35385;55.668;37.508;2023-03-01T03:25:17;98464.09;;;-5.65;100.00
36600;BME280;35385;55.668;37.508;2023-03-01T03:26:17;98475.66;;;-5.74;100.00
36600;BME280;35385;55.668;37.508;2023-03-01T03:27:18;98460.00;;;-5.72;100.00
36600;BME280;35385;55.668;37.508;2023-03-01T03:28:19;98472.09;;;-5.71;100.00
36600;BME280;35385;55.668;37.508;2023-03-01T03:29:19;98472.88;;;-5.69;100.00
36600;BME280;35385;55.668;37.508;2023-03-01T03:30:20;98478.00;;;-5.66;100.00
36600;BME280;35385;55.668;37.508;2023-03-01T03:31:21;98463.59;;;-5.76;100.00
36600;BME280;35385;55.668;37.508;2023-03-01T03:32:22;98481.81;;;-5.76;100.00
36600;BME280;35385;55.668;37.508;2023-03-01T03:33:22;98472.53;;;-5.83;100.00
36600;BME280;35385;55.668;37.508;2023-03-01T03:34:23;98423.41;;;-6.14;100.00
36600;BME280;35385;55.668;37.508;2023-03-01T03:35:30;98469.28;;;-5.88;100.00
36600;BME280;35385;55.668;37.508;2023-03-01T03:36:32;98414.00;;;-6.18;100.00
36600;BME280;35385;55.668;37.508;2023-03-01T03:37:32;98484.53;;;-5.79;100.00
36600;BME280;35385;55.668;37.508;2023-03-01T03:38:59;98482.13;;;-5.85;100.00
36600;BME280;35385;55.668;37.508;2023-03-01T03:39:59;98484.69;;;-5.84;100.00
36600;BME280;35385;55.668;37.508;2023-03-01T03:41:03;98485.53;;;-5.83;100.00
36600;BME280;35385;55.668;37.508;2023-03-01T03:42:04;98486.44;;;-5.84;100.00
36600;BME280;35385;55.668;37.508;2023-03-01T03:43:07;98487.81;;;-5.74;100.00
36600;BME280;35385;55.668;37.508;2023-03-01T03:44:08;98485.25;;;-5.76;100.00
36600;BME280;35385;55.668;37.508;2023-03-01T03:45:09;98479.72;;;-5.90;100.00
36600;BME280;35385;55.668;37.508;2023-03-01T03:46:11;98479.50;;;-5.84;100.00
36600;BME280;35385;55.668;37.508;2023-03-01T03:47:12;98482.09;;;-5.84;100.00
36600;BME280;35385;55.668;37.508;2023-03-01T03:48:12;98486.44;;;-5.84;100.00
36600;BME280;35385;55.668;37.508;2023-03-01T03:49:13;98495.16;;;-5.85;100.00
36600;BME280;35385;55.668;37.508;2023-03-01T03:50:16;98486.38;;;-5.83;100.00
36600;BME280;35385;55.668;37.508;2023-03-01T03:51:17;98494.94;;;-5.79;100.00
36600;BME280;35385;55.668;37.508;2023-03-01T03:52:18;98489.84;;;-5.82;100.00
36600;BME280;35385;55.668;37.508;2023-03-01T03:53:19;98495.28;;;-5.88;100.00
36600;BME280;35385;55.668;37.508;2023-03-01T03:54:21;98490.97;;;-5.89;100.00
36600;BME280;35385;55.668;37.508;2023-03-01T03:55:21;98489.94;;;-5.85;100.00
36600;BME280;35385;55.668;37.508;2023-03-01T03:56:22;98483.03;;;-5.86;100.00
36600;BME280;35385;55.668;37.508;2023-03-01T03:57:26;98497.06;;;-5.90;100.00
36600;BME280;35385;55.668;37.508;2023-03-01T03:58:26;98478.81;;;-5.89;100.00
36600;BME280;35385;55.668;37.508;2023-03-01T03:59:27;98489.94;;;-5.85;100.00
36600;BME280;35385;55.668;37.508;2023-03-01T04:00:28;98463.59;;;-5.99;100.00
36600;BME280;35385;55.668;37.508;2023-03-01T04:01:29;98478.31;;;-5.98;100.00
36600;BME280;35385;55.668;37.508;2023-03-01T04:02:30;98480.75;;;-5.94;100.00
36600;BME280;35385;55.668;37.508;2023-03-01T04:03:31;98487.47;;;-5.88;100.00
36600;BME280;35385;55.668;37.508;2023-03-01T04:04:32;98447.75;;;-6.17;100.00
36600;BME280;35385;55.668;37.508;2023-03-01T04:05:34;98475.00;;;-6.03;100.00
36600;BME280;35385;55.668;37.508;2023-03-01T04:06:35;98420.63;;;-6.34;100.00
36600;BME280;35385;55.668;37.508;2023-03-01T04:07:36;98473.00;;;-5.95;100.00
36600;BME280;35385;55.668;37.508;2023-03-01T04:08:37;98483.31;;;-5.92;100.00
36600;BME280;35385;55.668;37.508;2023-03-01T04:09:37;98493.06;;;-5.99;100.00
36600;BME280;35385;55.668;37.508;2023-03-01T04:10:45;98494.66;;;-5.95;100.00
36600;BME280;35385;55.668;37.508;2023-03-01T04:11:48;98482.47;;;-5.93;100.00
36600;BME280;35385;55.668;37.508;2023-03-01T04:12:48;98482.50;;;-5.94;100.00
36600;BME280;35385;55.668;37.508;2023-03-01T04:13:49;98493.81;;;-5.95;100.00
36600;BME280;35385;55.668;37.508;2023-03-01T04:14:50;98491.25;;;-5.97;100.00
36600;BME280;35385;55.668;37.508;2023-03-01T04:15:52;98499.75;;;-5.92;100.00
36600;BME280;35385;55.668;37.508;2023-03-01T04:16:53;98485.53;;;-6.07;100.00
36600;BME280;35385;55.668;37.508;2023-03-01T04:17:55;98327.56;;;-6.98;100.00
36600;BME280;35385;55.668;37.508;2023-03-01T04:18:55;98428.84;;;-6.47;100.00
36600;BME280;35385;55.668;37.508;2023-03-01T04:19:56;98502.56;;;-5.98;100.00
36600;BME280;35385;55.668;37.508;2023-03-01T04:20:57;98495.50;;;-5.94;100.00
36600;BME280;35385;55.668;37.508;2023-03-01T04:21:57;98504.22;;;-5.95;100.00
36600;BME280;35385;55.668;37.508;2023-03-01T04:23:06;98497.97;;;-5.91;100.00
36600;BME280;35385;55.668;37.508;2023-03-01T04:24:15;98513.00;;;-5.99;100.00
36600;BME280;35385;55.668;37.508;2023-03-01T04:25:16;98450.53;;;-6.21;100.00
36600;BME280;35385;55.668;37.508;2023-03-01T04:26:17;98512.25;;;-6.03;100.00
36600;BME280;35385;55.668;37.508;2023-03-01T04:27:17;98500.16;;;-6.04;100.00
36600;BME280;35385;55.668;37.508;2023-03-01T04:28:18;98507.22;;;-6.08;100.00
36600;BME280;35385;55.668;37.508;2023-03-01T04:29:19;98508.75;;;-6.02;100.00
36600;BME280;35385;55.668;37.508;2023-03-01T04:30:20;98508.75;;;-6.02;100.00
36600;BME280;35385;55.668;37.508;2023-03-01T04:31:20;98503.84;;;-6.10;100.00
36600;BME280;35385;55.668;37.508;2023-03-01T04:32:21;98505.41;;;-6.06;100.00
36600;BME280;35385;55.668;37.508;2023-03-01T04:33:23;98514.72;;;-5.98;100.00
36600;BME280;35385;55.668;37.508;2023-03-01T04:34:24;98504.31;;;-5.98;100.00
36600;BME280;35385;55.668;37.508;2023-03-01T04:35:26;98406.72;;;-6.58;100.00
36600;BME280;35385;55.668;37.508;2023-03-01T04:36:29;98512.75;;;-5.92;100.00
36600;BME280;35385;55.668;37.508;2023-03-01T04:37:29;98513.66;;;-5.93;100.00
36600;BME280;35385;55.668;37.508;2023-03-01T04:38:30;98506.72;;;-5.92;100.00
36600;BME280;35385;55.668;37.508;2023-03-01T04:39:30;98516.13;;;-5.90;100.00
36600;BME280;35385;55.668;37.508;2023-03-01T04:40:33;98519.81;;;-5.95;100.00
36600;BME280;35385;55.668;37.508;2023-03-01T04:41:34;98513.72;;;-5.94;100.00
36600;BME280;35385;55.668;37.508;2023-03-01T04:42:34;98509.41;;;-5.95;100.00
36600;BME280;35385;55.668;37.508;2023-03-01T04:43:35;98514.59;;;-5.95;100.00
36600;BME280;35385;55.668;37.508;2023-03-01T04:44:36;98530.34;;;-6.00;100.00
36600;BME280;35385;55.668;37.508;2023-03-01T04:45:36;98518.91;;;-5.94;100.00
36600;BME280;35385;55.668;37.508;2023-03-01T04:46:37;98520.63;;;-5.93;100.00
36600;BME280;35385;55.668;37.508;2023-03-01T04:47:39;98516.50;;;-6.00;100.00
36600;BME280;35385;55.668;37.508;2023-03-01T04:48:41;98521.50;;;-5.94;100.00
36600;BME280;35385;55.668;37.508;2023-03-01T04:49:43;98523.25;;;-5.95;100.00
36600;BME280;35385;55.668;37.508;2023-03-01T04:50:43;98513.66;;;-5.93;100.00
36600;BME280;35385;55.668;37.508;2023-03-01T04:51:44;98517.13;;;-5.92;100.00
36600;BME280;35385;55.668;37.508;2023-03-01T04:52:44;98524.25;;;-5.99;100.00
36600;BME280;35385;55.668;37.508;2023-03-01T04:53:46;98525.44;;;-6.08;100.00
36600;BME280;35385;55.668;37.508;2023-03-01T04:54:46;98498.75;;;-6.39;100.00
36600;BME280;35385;55.668;37.508;2023-03-01T04:55:47;98508.94;;;-6.33;100.00
36600;BME280;35385;55.668;37.508;2023-03-01T04:56:47;98531.94;;;-6.21;100.00
36600;BME280;35385;55.668;37.508;2023-03-01T04:57:48;98523.03;;;-6.14;100.00
36600;BME280;35385;55.668;37.508;2023-03-01T04:58:48;98527.13;;;-6.07;100.00
36600;BME280;35385;55.668;37.508;2023-03-01T04:59:49;98519.06;;;-5.99;100.00
36600;BME280;35385;55.668;37.508;2023-03-01T05:00:50;98505.22;;;-5.99;100.00
36600;BME280;35385;55.668;37.508;2023-03-01T05:01:55;98534.38;;;-5.91;100.00
36600;BME280;35385;55.668;37.508;2023-03-01T05:02:58;98530.31;;;-5.98;100.00
36600;BME280;35385;55.668;37.508;2023-03-01T05:04:00;98523.31;;;-5.96;100.00
36600;BME280;35385;55.668;37.508;2023-03-01T05:05:03;98532.91;;;-5.98;100.00
36600;BME280;35385;55.668;37.508;2023-03-01T05:06:06;98526.91;;;-6.00;100.00
36600;BME280;35385;55.668;37.508;2023-03-01T05:07:06;98526.34;;;-6.09;100.00
36600;BME280;35385;55.668;37.508;2023-03-01T05:08:07;98466.69;;;-6.64;100.00
36600;BME280;35385;55.668;37.508;2023-03-01T05:09:08;98433.13;;;-6.70;100.00
36600;BME280;35385;55.668;37.508;2023-03-01T05:10:09;98537.41;;;-6.03;100.00
36600;BME280;35385;55.668;37.508;2023-03-01T05:11:10;98531.69;;;-6.13;100.00
36600;BME280;35385;55.668;37.508;2023-03-01T05:12:11;98534.13;;;-6.09;100.00
36600;BME280;35385;55.668;37.508;2023-03-01T05:13:13;98533.72;;;-5.96;100.00
36600;BME280;35385;55.668;37.508;2023-03-01T05:14:15;98525.63;;;-6.14;100.00
36600;BME280;35385;55.668;37.508;2023-03-01T05:15:16;98533.91;;;-6.02;100.00
36600;BME280;35385;55.668;37.508;2023-03-01T05:16:16;98535.50;;;-5.98;100.00
36600;BME280;35385;55.668;37.508;2023-03-01T05:17:18;98474.97;;;-6.27;100.00
36600;BME280;35385;55.668;37.508;2023-03-01T05:18:18;98540.16;;;-5.83;100.00
36600;BME280;35385;55.668;37.508;2023-03-01T05:19:19;98534.16;;;-5.85;100.00
36600;BME280;35385;55.668;37.508;2023-03-01T05:20:22;98542.44;;;-5.74;100.00
36600;BME280;35385;55.668;37.508;2023-03-01T05:21:23;98539.41;;;-5.62;100.00
36600;BME280;35385;55.668;37.508;2023-03-01T05:22:24;98541.69;;;-5.53;100.00
36600;BME280;35385;55.668;37.508;2023-03-01T05:23:25;98545.03;;;-5.49;100.00
36600;BME280;35385;55.668;37.508;2023-03-01T05:24:26;98483.16;;;-5.89;100.00
36600;BME280;35385;55.668;37.508;2023-03-01T05:25:27;98551.75;;;-5.44;100.00
36600;BME280;35385;55.668;37.508;2023-03-01T05:26:32;98543.22;;;-5.47;100.00
36600;BME280;35385;55.668;37.508;2023-03-01T05:27:34;98548.34;;;-5.69;100.00
36600;BME280;35385;55.668;37.508;2023-03-01T05:28:35;98549.34;;;-5.73;100.00
36600;BME280;35385;55.668;37.508;2023-03-01T05:29:35;98536.66;;;-5.82;100.00